Terminal Aerodrome Forecast
Issued by NWS

Home | Current Version | Previous Version | Text Only | Print | Product List | Glossary On
Versions: 1 2 3 4 5 6 7 8 9 10 11 12 13 14
000
FTUS46 KPDT 222000 AAA
TAFBDN
TAF AMD
KBDN 222011Z 2220/2318 22010KT P6SM SCT070 BKN250
      TEMPO 2222/2302 -TSRA BKN050CB BKN100
     FM230200 35008KT P6SM VCSH BKN050 OVC100
     FM230600 VRB06KT P6SM SCT050 BKN100=

USA.gov is the U.S. government's official web portal to all federal, state and local government web resources and services.